sensor_id;sensor_type;location;lat;lon;timestamp;temperature;humidity
8856;DHT22;4464;50.882;4.730;2022-12-05T00:00:58;2.80;99.90
8856;DHT22;4464;50.882;4.730;2022-12-05T00:03:27;2.80;99.90
8856;DHT22;4464;50.882;4.730;2022-12-05T00:05:55;2.80;99.90
8856;DHT22;4464;50.882;4.730;2022-12-05T00:08:21;2.80;99.90
8856;DHT22;4464;50.882;4.730;2022-12-05T00:10:47;2.90;99.90
8856;DHT22;4464;50.882;4.730;2022-12-05T00:13:16;3.00;99.90
8856;DHT22;4464;50.882;4.730;2022-12-05T00:15:42;2.90;99.90
8856;DHT22;4464;50.882;4.730;2022-12-05T00:18:08;3.00;99.90
8856;DHT22;4464;50.882;4.730;2022-12-05T00:20:34;3.00;99.90
8856;DHT22;4464;50.882;4.730;2022-12-05T00:23:00;3.00;99.90
8856;DHT22;4464;50.882;4.730;2022-12-05T00:25:26;2.90;99.90
8856;DHT22;4464;50.882;4.730;2022-12-05T00:27:55;2.90;99.90
8856;DHT22;4464;50.882;4.730;2022-12-05T00:30:21;2.90;99.90
8856;DHT22;4464;50.882;4.730;2022-12-05T00:32:47;2.90;99.90
8856;DHT22;4464;50.882;4.730;2022-12-05T00:35:13;2.80;99.90
8856;DHT22;4464;50.882;4.730;2022-12-05T00:37:39;2.90;99.90
8856;DHT22;4464;50.882;4.730;2022-12-05T00:40:05;2.90;99.90
8856;DHT22;4464;50.882;4.730;2022-12-05T00:42:32;2.90;99.90
8856;DHT22;4464;50.882;4.730;2022-12-05T00:45:00;2.90;99.90
8856;DHT22;4464;50.882;4.730;2022-12-05T00:47:28;2.90;99.90
8856;DHT22;4464;50.882;4.730;2022-12-05T00:49:53;2.90;99.90
8856;DHT22;4464;50.882;4.730;2022-12-05T00:52:19;2.90;99.90
8856;DHT22;4464;50.882;4.730;2022-12-05T00:54:45;2.90;99.90
8856;DHT22;4464;50.882;4.730;2022-12-05T00:57:11;3.00;99.90
8856;DHT22;4464;50.882;4.730;2022-12-05T00:59:37;3.00;99.90
8856;DHT22;4464;50.882;4.730;2022-12-05T01:02:04;3.00;99.90
8856;DHT22;4464;50.882;4.730;2022-12-05T01:04:33;3.00;99.90
8856;DHT22;4464;50.882;4.730;2022-12-05T01:06:58;3.00;99.90
8856;DHT22;4464;50.882;4.730;2022-12-05T01:09:25;3.00;99.90
8856;DHT22;4464;50.882;4.730;2022-12-05T01:11:51;2.90;99.90
8856;DHT22;4464;50.882;4.730;2022-12-05T01:14:19;3.00;99.90
8856;DHT22;4464;50.882;4.730;2022-12-05T01:16:50;3.00;99.90
8856;DHT22;4464;50.882;4.730;2022-12-05T01:19:20;3.00;99.90
8856;DHT22;4464;50.882;4.730;2022-12-05T01:21:47;3.00;99.90
8856;DHT22;4464;50.882;4.730;2022-12-05T01:24:14;3.00;99.90
8856;DHT22;4464;50.882;4.730;2022-12-05T01:26:43;3.00;99.90
8856;DHT22;4464;50.882;4.730;2022-12-05T01:29:11;3.00;99.90
8856;DHT22;4464;50.882;4.730;2022-12-05T01:31:43;3.00;99.90
8856;DHT22;4464;50.882;4.730;2022-12-05T01:34:14;2.90;99.90
8856;DHT22;4464;50.882;4.730;2022-12-05T01:36:43;2.90;99.90
8856;DHT22;4464;50.882;4.730;2022-12-05T01:39:10;3.00;99.90
8856;DHT22;4464;50.882;4.730;2022-12-05T01:41:40;2.90;99.90
8856;DHT22;4464;50.882;4.730;2022-12-05T01:46:47;3.10;99.90
8856;DHT22;4464;50.882;4.730;2022-12-05T01:51:46;3.00;99.90
8856;DHT22;4464;50.882;4.730;2022-12-05T01:54:13;3.10;99.90
8856;DHT22;4464;50.882;4.730;2022-12-05T01:56:41;3.10;99.90
8856;DHT22;4464;50.882;4.730;2022-12-05T01:59:10;3.00;99.90
8856;DHT22;4464;50.882;4.730;2022-12-05T02:01:40;3.00;99.90
8856;DHT22;4464;50.882;4.730;2022-12-05T02:04:08;3.10;99.90
8856;DHT22;4464;50.882;4.730;2022-12-05T02:06:37;3.00;99.90
8856;DHT22;4464;50.882;4.730;2022-12-05T02:09:04;3.00;99.90
8856;DHT22;4464;50.882;4.730;2022-12-05T02:11:31;3.00;99.90
8856;DHT22;4464;50.882;4.730;2022-12-05T02:21:59;3.10;99.90
8856;DHT22;4464;50.882;4.730;2022-12-05T02:27:42;3.20;99.90
8856;DHT22;4464;50.882;4.730;2022-12-05T02:30:16;3.20;99.90
8856;DHT22;4464;50.882;4.730;2022-12-05T02:35:45;3.20;99.90
8856;DHT22;4464;50.882;4.730;2022-12-05T02:38:17;3.20;99.90
8856;DHT22;4464;50.882;4.730;2022-12-05T02:43:24;3.10;99.90
8856;DHT22;4464;50.882;4.730;2022-12-05T02:46:00;3.10;99.90
8856;DHT22;4464;50.882;4.730;2022-12-05T02:48:28;3.10;99.90
8856;DHT22;4464;50.882;4.730;2022-12-05T02:50:56;3.10;99.90
8856;DHT22;4464;50.882;4.730;2022-12-05T02:53:25;3.10;99.90
8856;DHT22;4464;50.882;4.730;2022-12-05T02:55:53;3.20;99.90
8856;DHT22;4464;50.882;4.730;2022-12-05T02:58:26;3.00;99.90
8856;DHT22;4464;50.882;4.730;2022-12-05T03:00:58;3.00;99.90
8856;DHT22;4464;50.882;4.730;2022-12-05T03:03:27;3.00;99.90
8856;DHT22;4464;50.882;4.730;2022-12-05T03:05:55;3.00;99.90
8856;DHT22;4464;50.882;4.730;2022-12-05T03:08:35;3.20;99.90
8856;DHT22;4464;50.882;4.730;2022-12-05T03:11:03;3.30;99.90
8856;DHT22;4464;50.882;4.730;2022-12-05T03:13:37;3.30;99.90
8856;DHT22;4464;50.882;4.730;2022-12-05T03:16:10;3.20;99.90
8856;DHT22;4464;50.882;4.730;2022-12-05T03:18:55;3.20;99.90
8856;DHT22;4464;50.882;4.730;2022-12-05T03:24:03;3.30;99.90
8856;DHT22;4464;50.882;4.730;2022-12-05T03:26:45;3.20;99.90
8856;DHT22;4464;50.882;4.730;2022-12-05T03:29:35;3.20;99.90
8856;DHT22;4464;50.882;4.730;2022-12-05T03:32:10;3.20;99.90
8856;DHT22;4464;50.882;4.730;2022-12-05T03:37:34;3.20;99.90
8856;DHT22;4464;50.882;4.730;2022-12-05T03:40:40;3.20;99.90
8856;DHT22;4464;50.882;4.730;2022-12-05T03:46:10;3.10;99.90
8856;DHT22;4464;50.882;4.730;2022-12-05T03:51:48;3.00;99.90
8856;DHT22;4464;50.882;4.730;2022-12-05T03:56:57;3.10;99.90
8856;DHT22;4464;50.882;4.730;2022-12-05T03:59:40;3.10;99.90
8856;DHT22;4464;50.882;4.730;2022-12-05T04:02:13;3.10;99.90
8856;DHT22;4464;50.882;4.730;2022-12-05T04:05:08;3.10;99.90
8856;DHT22;4464;50.882;4.730;2022-12-05T04:07:37;3.10;99.90
8856;DHT22;4464;50.882;4.730;2022-12-05T04:10:11;3.10;99.90
8856;DHT22;4464;50.882;4.730;2022-12-05T04:12:40;3.10;99.90
8856;DHT22;4464;50.882;4.730;2022-12-05T04:15:11;3.10;99.90
8856;DHT22;4464;50.882;4.730;2022-12-05T04:17:57;3.00;99.90
8856;DHT22;4464;50.882;4.730;2022-12-05T04:20:36;3.00;99.90
8856;DHT22;4464;50.882;4.730;2022-12-05T04:23:20;3.00;99.90
8856;DHT22;4464;50.882;4.730;2022-12-05T04:28:37;3.00;99.90
8856;DHT22;4464;50.882;4.730;2022-12-05T04:31:05;3.00;99.90
8856;DHT22;4464;50.882;4.730;2022-12-05T04:33:51;3.10;99.90
8856;DHT22;4464;50.882;4.730;2022-12-05T04:36:41;3.10;99.90
8856;DHT22;4464;50.882;4.730;2022-12-05T04:42:06;3.10;99.90
8856;DHT22;4464;50.882;4.730;2022-12-05T04:44:37;3.20;99.90
8856;DHT22;4464;50.882;4.730;2022-12-05T04:47:08;3.10;99.90
8856;DHT22;4464;50.882;4.730;2022-12-05T04:49:40;3.00;99.90
8856;DHT22;4464;50.882;4.730;2022-12-05T04:52:09;3.10;99.90
8856;DHT22;4464;50.882;4.730;2022-12-05T04:57:17;3.10;99.90
8856;DHT22;4464;50.882;4.730;2022-12-05T04:59:44;3.00;99.90
8856;DHT22;4464;50.882;4.730;2022-12-05T05:02:14;3.20;99.90
8856;DHT22;4464;50.882;4.730;2022-12-05T05:04:47;3.10;99.90
8856;DHT22;4464;50.882;4.730;2022-12-05T05:07:16;3.10;99.90
8856;DHT22;4464;50.882;4.730;2022-12-05T05:09:42;3.20;99.90
8856;DHT22;4464;50.882;4.730;2022-12-05T05:12:11;3.10;99.90
8856;DHT22;4464;50.882;4.730;2022-12-05T05:14:39;3.10;99.90
8856;DHT22;4464;50.882;4.730;2022-12-05T05:17:05;3.10;99.90
8856;DHT22;4464;50.882;4.730;2022-12-05T05:19:31;3.10;99.90
8856;DHT22;4464;50.882;4.730;2022-12-05T05:21:57;3.10;99.90
8856;DHT22;4464;50.882;4.730;2022-12-05T05:24:24;3.20;99.90
8856;DHT22;4464;50.882;4.730;2022-12-05T05:26:51;3.10;99.90
8856;DHT22;4464;50.882;4.730;2022-12-05T05:29:19;3.10;99.90
8856;DHT22;4464;50.882;4.730;2022-12-05T05:31:47;3.20;99.90
8856;DHT22;4464;50.882;4.730;2022-12-05T05:34:15;3.20;99.90
8856;DHT22;4464;50.882;4.730;2022-12-05T05:36:41;3.30;99.90
8856;DHT22;4464;50.882;4.730;2022-12-05T05:39:12;3.30;99.90
8856;DHT22;4464;50.882;4.730;2022-12-05T05:41:42;3.30;99.90
8856;DHT22;4464;50.882;4.730;2022-12-05T05:44:08;3.30;99.90
8856;DHT22;4464;50.882;4.730;2022-12-05T05:46:34;3.20;99.90
8856;DHT22;4464;50.882;4.730;2022-12-05T05:49:00;3.20;99.90
8856;DHT22;4464;50.882;4.730;2022-12-05T05:51:27;3.20;99.90
8856;DHT22;4464;50.882;4.730;2022-12-05T05:53:54;3.10;99.90
8856;DHT22;4464;50.882;4.730;2022-12-05T05:56:20;3.20;99.90
8856;DHT22;4464;50.882;4.730;2022-12-05T05:58:54;3.30;99.90
8856;DHT22;4464;50.882;4.730;2022-12-05T06:01:21;3.30;99.90
8856;DHT22;4464;50.882;4.730;2022-12-05T06:03:48;3.30;99.90
8856;DHT22;4464;50.882;4.730;2022-12-05T06:06:18;3.30;99.90
8856;DHT22;4464;50.882;4.730;2022-12-05T06:08:44;3.30;99.90
8856;DHT22;4464;50.882;4.730;2022-12-05T06:11:20;3.30;99.90
8856;DHT22;4464;50.882;4.730;2022-12-05T06:13:49;3.40;99.90
8856;DHT22;4464;50.882;4.730;2022-12-05T06:16:17;3.40;99.90
8856;DHT22;4464;50.882;4.730;2022-12-05T06:18:48;3.40;99.90
8856;DHT22;4464;50.882;4.730;2022-12-05T06:21:17;3.40;99.90
8856;DHT22;4464;50.882;4.730;2022-12-05T06:23:43;3.30;99.90
8856;DHT22;4464;50.882;4.730;2022-12-05T06:26:13;3.40;99.90
8856;DHT22;4464;50.882;4.730;2022-12-05T06:28:40;3.30;99.90
8856;DHT22;4464;50.882;4.730;2022-12-05T06:31:12;3.30;99.90
8856;DHT22;4464;50.882;4.730;2022-12-05T06:33:39;3.40;99.90
8856;DHT22;4464;50.882;4.730;2022-12-05T06:36:09;3.30;99.90
8856;DHT22;4464;50.882;4.730;2022-12-05T06:38:35;3.30;99.90
8856;DHT22;4464;50.882;4.730;2022-12-05T06:41:09;3.40;99.90
8856;DHT22;4464;50.882;4.730;2022-12-05T06:43:38;3.40;99.90
8856;DHT22;4464;50.882;4.730;2022-12-05T06:46:08;3.40;99.90
8856;DHT22;4464;50.882;4.730;2022-12-05T06:48:34;3.30;99.90
8856;DHT22;4464;50.882;4.730;2022-12-05T06:51:01;3.40;99.90
8856;DHT22;4464;50.882;4.730;2022-12-05T06:53:27;3.40;99.90
8856;DHT22;4464;50.882;4.730;2022-12-05T06:56:01;3.40;99.90
8856;DHT22;4464;50.882;4.730;2022-12-05T06:58:29;3.50;99.90
8856;DHT22;4464;50.882;4.730;2022-12-05T07:00:55;3.50;99.90
8856;DHT22;4464;50.882;4.730;2022-12-05T07:03:40;3.60;99.90
8856;DHT22;4464;50.882;4.730;2022-12-05T07:06:06;3.50;99.90
8856;DHT22;4464;50.882;4.730;2022-12-05T07:08:33;3.40;99.90
8856;DHT22;4464;50.882;4.730;2022-12-05T07:10:59;3.40;99.90
8856;DHT22;4464;50.882;4.730;2022-12-05T07:13:26;3.50;99.90
8856;DHT22;4464;50.882;4.730;2022-12-05T07:15:52;3.50;99.90
8856;DHT22;4464;50.882;4.730;2022-12-05T07:18:18;3.40;99.90
8856;DHT22;4464;50.882;4.730;2022-12-05T07:20:44;3.50;99.90
8856;DHT22;4464;50.882;4.730;2022-12-05T07:23:12;3.50;99.90
8856;DHT22;4464;50.882;4.730;2022-12-05T07:25:39;3.40;99.90
8856;DHT22;4464;50.882;4.730;2022-12-05T07:28:06;3.40;99.90
8856;DHT22;4464;50.882;4.730;2022-12-05T07:30:34;3.40;99.90
8856;DHT22;4464;50.882;4.730;2022-12-05T07:33:03;3.40;99.90
8856;DHT22;4464;50.882;4.730;2022-12-05T07:35:31;3.30;99.90
8856;DHT22;4464;50.882;4.730;2022-12-05T07:37:59;3.20;99.90
8856;DHT22;4464;50.882;4.730;2022-12-05T07:40:25;3.20;99.90
8856;DHT22;4464;50.882;4.730;2022-12-05T07:42:50;3.30;99.90
8856;DHT22;4464;50.882;4.730;2022-12-05T07:45:18;3.40;99.90
8856;DHT22;4464;50.882;4.730;2022-12-05T07:47:47;3.40;99.90
8856;DHT22;4464;50.882;4.730;2022-12-05T07:50:13;3.40;99.90
8856;DHT22;4464;50.882;4.730;2022-12-05T07:52:40;3.40;99.90
8856;DHT22;4464;50.882;4.730;2022-12-05T07:55:07;3.50;99.90
8856;DHT22;4464;50.882;4.730;2022-12-05T07:57:33;3.50;99.90
8856;DHT22;4464;50.882;4.730;2022-12-05T07:59:58;3.40;99.90
8856;DHT22;4464;50.882;4.730;2022-12-05T08:02:31;3.50;99.90
8856;DHT22;4464;50.882;4.730;2022-12-05T08:04:56;3.40;99.90
8856;DHT22;4464;50.882;4.730;2022-12-05T08:07:27;3.40;99.90
8856;DHT22;4464;50.882;4.730;2022-12-05T08:09:53;3.40;99.90
8856;DHT22;4464;50.882;4.730;2022-12-05T08:12:21;3.40;99.90
8856;DHT22;4464;50.882;4.730;2022-12-05T08:14:46;3.50;99.90
8856;DHT22;4464;50.882;4.730;2022-12-05T08:17:14;3.50;99.90
8856;DHT22;4464;50.882;4.730;2022-12-05T08:19:40;3.50;99.90
8856;DHT22;4464;50.882;4.730;2022-12-05T08:22:06;3.50;99.90
8856;DHT22;4464;50.882;4.730;2022-12-05T08:24:31;3.40;99.90
8856;DHT22;4464;50.882;4.730;2022-12-05T08:27:00;3.40;99.90
8856;DHT22;4464;50.882;4.730;2022-12-05T08:29:28;3.40;99.90
8856;DHT22;4464;50.882;4.730;2022-12-05T08:31:56;3.50;99.90
8856;DHT22;4464;50.882;4.730;2022-12-05T08:34:25;3.40;99.90
8856;DHT22;4464;50.882;4.730;2022-12-05T08:36:53;3.40;99.90
8856;DHT22;4464;50.882;4.730;2022-12-05T08:39:19;3.40;99.90
8856;DHT22;4464;50.882;4.730;2022-12-05T08:41:48;3.50;99.90
8856;DHT22;4464;50.882;4.730;2022-12-05T08:44:17;3.60;99.90
8856;DHT22;4464;50.882;4.730;2022-12-05T08:46:46;3.60;99.90
8856;DHT22;4464;50.882;4.730;2022-12-05T08:49:13;3.60;99.90
8856;DHT22;4464;50.882;4.730;2022-12-05T08:51:44;3.50;99.90
8856;DHT22;4464;50.882;4.730;2022-12-05T08:54:12;3.60;99.90
8856;DHT22;4464;50.882;4.730;2022-12-05T08:56:38;3.50;99.90
8856;DHT22;4464;50.882;4.730;2022-12-05T08:59:05;3.60;99.90
8856;DHT22;4464;50.882;4.730;2022-12-05T09:01:32;3.70;99.90
8856;DHT22;4464;50.882;4.730;2022-12-05T09:04:03;3.80;99.90
8856;DHT22;4464;50.882;4.730;2022-12-05T09:06:30;3.80;99.90
8856;DHT22;4464;50.882;4.730;2022-12-05T09:08:59;3.70;99.90
8856;DHT22;4464;50.882;4.730;2022-12-05T09:11:30;3.70;99.90
8856;DHT22;4464;50.882;4.730;2022-12-05T09:13:57;3.80;99.90
8856;DHT22;4464;50.882;4.730;2022-12-05T09:16:29;3.80;99.90
8856;DHT22;4464;50.882;4.730;2022-12-05T09:18:55;3.80;99.90
8856;DHT22;4464;50.882;4.730;2022-12-05T09:21:26;3.90;99.90
8856;DHT22;4464;50.882;4.730;2022-12-05T09:23:53;3.90;99.90
8856;DHT22;4464;50.882;4.730;2022-12-05T09:26:22;4.00;99.90
8856;DHT22;4464;50.882;4.730;2022-12-05T09:28:49;3.90;99.90
8856;DHT22;4464;50.882;4.730;2022-12-05T09:31:17;3.90;99.90
8856;DHT22;4464;50.882;4.730;2022-12-05T09:33:50;3.90;99.90
8856;DHT22;4464;50.882;4.730;2022-12-05T09:36:27;3.90;99.90
8856;DHT22;4464;50.882;4.730;2022-12-05T09:38:54;3.90;99.90
8856;DHT22;4464;50.882;4.730;2022-12-05T09:41:44;3.90;99.90
8856;DHT22;4464;50.882;4.730;2022-12-05T09:47:47;3.90;99.90
8856;DHT22;4464;50.882;4.730;2022-12-05T09:56:03;3.90;99.90
8856;DHT22;4464;50.882;4.730;2022-12-05T10:04:16;4.00;99.90
8856;DHT22;4464;50.882;4.730;2022-12-05T10:12:41;3.90;99.90
8856;DHT22;4464;50.882;4.730;2022-12-05T10:15:37;4.00;99.90
8856;DHT22;4464;50.882;4.730;2022-12-05T10:23:37;4.10;99.90
8856;DHT22;4464;50.882;4.730;2022-12-05T10:26:11;4.20;99.90
8856;DHT22;4464;50.882;4.730;2022-12-05T10:31:19;4.00;99.90
8856;DHT22;4464;50.882;4.730;2022-12-05T10:33:52;4.20;99.90
8856;DHT22;4464;50.882;4.730;2022-12-05T10:36:23;4.20;99.90
8856;DHT22;4464;50.882;4.730;2022-12-05T10:38:49;4.10;99.90
8856;DHT22;4464;50.882;4.730;2022-12-05T10:41:16;4.10;99.90
8856;DHT22;4464;50.882;4.730;2022-12-05T10:43:45;4.10;99.90
8856;DHT22;4464;50.882;4.730;2022-12-05T10:46:14;4.10;99.90
8856;DHT22;4464;50.882;4.730;2022-12-05T10:48:43;4.00;99.90
8856;DHT22;4464;50.882;4.730;2022-12-05T10:51:17;3.90;99.90
8856;DHT22;4464;50.882;4.730;2022-12-05T10:53:48;4.10;99.90
8856;DHT22;4464;50.882;4.730;2022-12-05T10:56:41;4.10;99.90
8856;DHT22;4464;50.882;4.730;2022-12-05T10:59:21;4.10;99.90
8856;DHT22;4464;50.882;4.730;2022-12-05T11:01:55;4.10;99.90
8856;DHT22;4464;50.882;4.730;2022-12-05T11:04:29;4.00;99.90
8856;DHT22;4464;50.882;4.730;2022-12-05T11:07:00;3.90;99.90
8856;DHT22;4464;50.882;4.730;2022-12-05T11:09:32;3.90;99.90
8856;DHT22;4464;50.882;4.730;2022-12-05T11:14:31;3.90;99.90
8856;DHT22;4464;50.882;4.730;2022-12-05T11:17:00;4.00;99.90
8856;DHT22;4464;50.882;4.730;2022-12-05T11:19:36;4.10;99.90
8856;DHT22;4464;50.882;4.730;2022-12-05T11:22:09;3.90;99.90
8856;DHT22;4464;50.882;4.730;2022-12-05T11:24:40;3.80;99.90
8856;DHT22;4464;50.882;4.730;2022-12-05T11:29:43;4.00;99.90
8856;DHT22;4464;50.882;4.730;2022-12-05T11:32:20;4.20;99.90
8856;DHT22;4464;50.882;4.730;2022-12-05T11:35:17;4.20;99.90
8856;DHT22;4464;50.882;4.730;2022-12-05T11:37:56;4.20;99.90
8856;DHT22;4464;50.882;4.730;2022-12-05T11:40:46;4.20;99.90
8856;DHT22;4464;50.882;4.730;2022-12-05T11:46:25;4.00;99.90
8856;DHT22;4464;50.882;4.730;2022-12-05T12:05:34;3.90;99.90
8856;DHT22;4464;50.882;4.730;2022-12-05T12:24:26;4.20;99.90
8856;DHT22;4464;50.882;4.730;2022-12-05T12:35:17;4.20;99.90
8856;DHT22;4464;50.882;4.730;2022-12-05T12:38:02;4.30;99.90
8856;DHT22;4464;50.882;4.730;2022-12-05T12:46:51;4.20;99.90
8856;DHT22;4464;50.882;4.730;2022-12-05T12:49:57;4.00;99.90
8856;DHT22;4464;50.882;4.730;2022-12-05T12:55:22;4.20;99.90
8856;DHT22;4464;50.882;4.730;2022-12-05T13:01:00;4.20;99.90
8856;DHT22;4464;50.882;4.730;2022-12-05T13:03:36;4.30;99.90
8856;DHT22;4464;50.882;4.730;2022-12-05T13:06:28;4.20;99.90
8856;DHT22;4464;50.882;4.730;2022-12-05T13:09:04;4.20;99.90
8856;DHT22;4464;50.882;4.730;2022-12-05T13:11:36;4.20;99.90
8856;DHT22;4464;50.882;4.730;2022-12-05T13:14:03;4.10;99.90
8856;DHT22;4464;50.882;4.730;2022-12-05T13:16:39;4.10;99.90
8856;DHT22;4464;50.882;4.730;2022-12-05T13:21:56;4.00;99.90
8856;DHT22;4464;50.882;4.730;2022-12-05T13:24:27;4.00;99.90
8856;DHT22;4464;50.882;4.730;2022-12-05T13:26:58;4.10;99.90
8856;DHT22;4464;50.882;4.730;2022-12-05T13:29:42;4.20;99.90
8856;DHT22;4464;50.882;4.730;2022-12-05T13:32:34;4.20;99.90
8856;DHT22;4464;50.882;4.730;2022-12-05T13:35:33;4.20;99.90
8856;DHT22;4464;50.882;4.730;2022-12-05T13:38:26;4.10;99.90
8856;DHT22;4464;50.882;4.730;2022-12-05T13:41:11;4.00;99.90
8856;DHT22;4464;50.882;4.730;2022-12-05T13:43:59;4.00;99.90
8856;DHT22;4464;50.882;4.730;2022-12-05T13:46:29;4.00;99.90
8856;DHT22;4464;50.882;4.730;2022-12-05T13:49:13;4.10;99.90
8856;DHT22;4464;50.882;4.730;2022-12-05T13:51:42;4.20;99.90
8856;DHT22;4464;50.882;4.730;2022-12-05T13:54:23;4.30;99.90
8856;DHT22;4464;50.882;4.730;2022-12-05T13:56:58;4.40;99.90
8856;DHT22;4464;50.882;4.730;2022-12-05T14:00:00;4.40;99.90
8856;DHT22;4464;50.882;4.730;2022-12-05T14:07:56;4.20;99.90
8856;DHT22;4464;50.882;4.730;2022-12-05T14:12:57;4.40;99.90
8856;DHT22;4464;50.882;4.730;2022-12-05T14:26:35;4.20;99.90
8856;DHT22;4464;50.882;4.730;2022-12-05T14:29:30;4.20;99.90
8856;DHT22;4464;50.882;4.730;2022-12-05T14:34:31;4.30;99.90
8856;DHT22;4464;50.882;4.730;2022-12-05T14:37:35;4.40;99.90
8856;DHT22;4464;50.882;4.730;2022-12-05T14:40:33;4.30;99.90
8856;DHT22;4464;50.882;4.730;2022-12-05T14:43:05;4.20;99.90
8856;DHT22;4464;50.882;4.730;2022-12-05T14:54:14;4.30;99.90
8856;DHT22;4464;50.882;4.730;2022-12-05T14:56:43;4.30;99.90
8856;DHT22;4464;50.882;4.730;2022-12-05T14:59:28;4.20;99.90
8856;DHT22;4464;50.882;4.730;2022-12-05T15:01:58;4.10;99.90
8856;DHT22;4464;50.882;4.730;2022-12-05T15:05:37;4.20;99.90
8856;DHT22;4464;50.882;4.730;2022-12-05T15:07:37;4.20;99.90
8856;DHT22;4464;50.882;4.730;2022-12-05T15:15:32;4.30;99.90
8856;DHT22;4464;50.882;4.730;2022-12-05T15:18:19;4.30;99.90
8856;DHT22;4464;50.882;4.730;2022-12-05T15:20:53;4.20;99.90
8856;DHT22;4464;50.882;4.730;2022-12-05T15:26:26;4.30;99.90
8856;DHT22;4464;50.882;4.730;2022-12-05T15:34:58;4.30;99.90
8856;DHT22;4464;50.882;4.730;2022-12-05T15:37:33;4.30;99.90
8856;DHT22;4464;50.882;4.730;2022-12-05T15:42:39;4.30;99.90
8856;DHT22;4464;50.882;4.730;2022-12-05T15:47:39;4.10;99.90
8856;DHT22;4464;50.882;4.730;2022-12-05T15:50:05;4.10;99.90
8856;DHT22;4464;50.882;4.730;2022-12-05T15:52:40;4.10;99.90
8856;DHT22;4464;50.882;4.730;2022-12-05T15:55:15;4.10;99.90
8856;DHT22;4464;50.882;4.730;2022-12-05T15:57:50;4.00;99.90
8856;DHT22;4464;50.882;4.730;2022-12-05T16:00:18;4.20;99.90
8856;DHT22;4464;50.882;4.730;2022-12-05T16:02:47;4.10;99.90
8856;DHT22;4464;50.882;4.730;2022-12-05T16:07:52;4.30;99.90
8856;DHT22;4464;50.882;4.730;2022-12-05T16:10:19;4.40;99.90
8856;DHT22;4464;50.882;4.730;2022-12-05T16:12:48;4.40;99.90
8856;DHT22;4464;50.882;4.730;2022-12-05T16:15:24;4.40;99.90
8856;DHT22;4464;50.882;4.730;2022-12-05T16:17:56;4.40;99.90
8856;DHT22;4464;50.882;4.730;2022-12-05T16:20:29;4.30;99.90
8856;DHT22;4464;50.882;4.730;2022-12-05T16:23:02;4.40;99.90
8856;DHT22;4464;50.882;4.730;2022-12-05T16:25:35;4.40;99.90
8856;DHT22;4464;50.882;4.730;2022-12-05T16:28:11;4.40;99.90
8856;DHT22;4464;50.882;4.730;2022-12-05T16:30:39;4.40;99.90
8856;DHT22;4464;50.882;4.730;2022-12-05T16:33:15;4.40;99.90
8856;DHT22;4464;50.882;4.730;2022-12-05T16:35:45;4.40;99.90
8856;DHT22;4464;50.882;4.730;2022-12-05T16:38:19;4.40;99.90
8856;DHT22;4464;50.882;4.730;2022-12-05T16:45:53;4.30;99.90
8856;DHT22;4464;50.882;4.730;2022-12-05T16:48:29;4.30;99.90
8856;DHT22;4464;50.882;4.730;2022-12-05T16:51:24;4.30;99.90
8856;DHT22;4464;50.882;4.730;2022-12-05T16:53:53;4.40;99.90
8856;DHT22;4464;50.882;4.730;2022-12-05T16:56:28;4.40;99.90
8856;DHT22;4464;50.882;4.730;2022-12-05T16:59:01;4.40;99.90
8856;DHT22;4464;50.882;4.730;2022-12-05T17:01:27;4.40;99.90
8856;DHT22;4464;50.882;4.730;2022-12-05T17:03:56;4.40;99.90
8856;DHT22;4464;50.882;4.730;2022-12-05T17:06:24;4.40;99.90
8856;DHT22;4464;50.882;4.730;2022-12-05T17:08:51;4.40;99.90
8856;DHT22;4464;50.882;4.730;2022-12-05T17:11:21;4.40;99.90
8856;DHT22;4464;50.882;4.730;2022-12-05T17:13:48;4.40;99.90
8856;DHT22;4464;50.882;4.730;2022-12-05T17:16:17;4.40;99.90
8856;DHT22;4464;50.882;4.730;2022-12-05T17:18:44;4.40;99.90
8856;DHT22;4464;50.882;4.730;2022-12-05T17:21:22;4.40;99.90
8856;DHT22;4464;50.882;4.730;2022-12-05T17:23:50;4.40;99.90
8856;DHT22;4464;50.882;4.730;2022-12-05T17:26:18;4.50;99.90
8856;DHT22;4464;50.882;4.730;2022-12-05T17:28:45;4.40;99.90
8856;DHT22;4464;50.882;4.730;2022-12-05T17:31:13;4.50;99.90
8856;DHT22;4464;50.882;4.730;2022-12-05T17:33:42;4.50;99.90
8856;DHT22;4464;50.882;4.730;2022-12-05T17:36:08;4.60;99.90
8856;DHT22;4464;50.882;4.730;2022-12-05T17:38:36;4.50;99.90
8856;DHT22;4464;50.882;4.730;2022-12-05T17:41:02;4.60;99.90
8856;DHT22;4464;50.882;4.730;2022-12-05T17:43:28;4.60;99.90
8856;DHT22;4464;50.882;4.730;2022-12-05T17:45:53;4.50;99.90
8856;DHT22;4464;50.882;4.730;2022-12-05T17:48:20;4.50;99.90
8856;DHT22;4464;50.882;4.730;2022-12-05T17:50:47;4.50;99.90
8856;DHT22;4464;50.882;4.730;2022-12-05T17:53:15;4.50;99.90
8856;DHT22;4464;50.882;4.730;2022-12-05T17:55:41;4.40;99.90
8856;DHT22;4464;50.882;4.730;2022-12-05T17:58:08;4.40;99.90
8856;DHT22;4464;50.882;4.730;2022-12-05T18:00:35;4.50;99.90
8856;DHT22;4464;50.882;4.730;2022-12-05T18:03:01;4.50;99.90
8856;DHT22;4464;50.882;4.730;2022-12-05T18:05:27;4.50;99.90
8856;DHT22;4464;50.882;4.730;2022-12-05T18:07:53;4.50;99.90
8856;DHT22;4464;50.882;4.730;2022-12-05T18:10:21;4.50;99.90
8856;DHT22;4464;50.882;4.730;2022-12-05T18:12:48;4.50;99.90
8856;DHT22;4464;50.882;4.730;2022-12-05T18:15:14;4.50;99.90
8856;DHT22;4464;50.882;4.730;2022-12-05T18:17:43;4.40;99.90
8856;DHT22;4464;50.882;4.730;2022-12-05T18:20:13;4.40;99.90
8856;DHT22;4464;50.882;4.730;2022-12-05T18:22:39;4.50;99.90
8856;DHT22;4464;50.882;4.730;2022-12-05T18:25:06;4.40;99.90
8856;DHT22;4464;50.882;4.730;2022-12-05T18:27:33;4.40;99.90
8856;DHT22;4464;50.882;4.730;2022-12-05T18:29:59;4.40;99.90
8856;DHT22;4464;50.882;4.730;2022-12-05T18:32:25;4.40;99.90
8856;DHT22;4464;50.882;4.730;2022-12-05T18:34:54;4.40;99.90
8856;DHT22;4464;50.882;4.730;2022-12-05T18:37:26;4.40;99.90
8856;DHT22;4464;50.882;4.730;2022-12-05T18:39:53;4.40;99.90
8856;DHT22;4464;50.882;4.730;2022-12-05T18:42:21;4.40;99.90
8856;DHT22;4464;50.882;4.730;2022-12-05T18:44:46;4.50;99.90
8856;DHT22;4464;50.882;4.730;2022-12-05T18:47:14;4.40;99.90
8856;DHT22;4464;50.882;4.730;2022-12-05T18:49:40;4.50;99.90
8856;DHT22;4464;50.882;4.730;2022-12-05T18:52:06;4.40;99.90
8856;DHT22;4464;50.882;4.730;2022-12-05T18:54:32;4.30;99.90
8856;DHT22;4464;50.882;4.730;2022-12-05T18:57:02;4.40;99.90
8856;DHT22;4464;50.882;4.730;2022-12-05T18:59:28;4.30;99.90
8856;DHT22;4464;50.882;4.730;2022-12-05T19:01:55;4.40;99.90
8856;DHT22;4464;50.882;4.730;2022-12-05T19:04:21;4.40;99.90
8856;DHT22;4464;50.882;4.730;2022-12-05T19:06:52;4.50;99.90
8856;DHT22;4464;50.882;4.730;2022-12-05T19:09:21;4.50;99.90
8856;DHT22;4464;50.882;4.730;2022-12-05T19:11:49;4.40;99.90
8856;DHT22;4464;50.882;4.730;2022-12-05T19:14:22;4.50;99.90
8856;DHT22;4464;50.882;4.730;2022-12-05T19:16:50;4.40;99.90
8856;DHT22;4464;50.882;4.730;2022-12-05T19:19:16;4.50;99.90
8856;DHT22;4464;50.882;4.730;2022-12-05T19:21:43;4.50;99.90
8856;DHT22;4464;50.882;4.730;2022-12-05T19:24:14;4.40;99.90
8856;DHT22;4464;50.882;4.730;2022-12-05T19:26:43;4.50;99.90
8856;DHT22;4464;50.882;4.730;2022-12-05T19:29:11;4.40;99.90
8856;DHT22;4464;50.882;4.730;2022-12-05T19:31:40;4.40;99.90
8856;DHT22;4464;50.882;4.730;2022-12-05T19:34:07;4.40;99.90
8856;DHT22;4464;50.882;4.730;2022-12-05T19:36:40;4.40;99.90
8856;DHT22;4464;50.882;4.730;2022-12-05T19:39:25;4.60;99.90
8856;DHT22;4464;50.882;4.730;2022-12-05T19:41:54;4.60;99.90
8856;DHT22;4464;50.882;4.730;2022-12-05T19:44:23;4.60;99.90
8856;DHT22;4464;50.882;4.730;2022-12-05T19:46:51;4.60;99.90
8856;DHT22;4464;50.882;4.730;2022-12-05T19:49:21;4.60;99.90
8856;DHT22;4464;50.882;4.730;2022-12-05T19:51:47;4.60;99.90
8856;DHT22;4464;50.882;4.730;2022-12-05T19:54:13;4.70;99.90
8856;DHT22;4464;50.882;4.730;2022-12-05T19:56:42;4.70;99.90